sensor_id;sensor_type;location;lat;lon;timestamp;P1;durP1;ratioP1;P2;durP2;ratioP2
1777;SDS011;71547;50.146;8.174;2024-03-29T00:00:39;2.00;;;1.40;;
1777;SDS011;71547;50.146;8.174;2024-03-29T00:03:06;2.73;;;1.70;;
1777;SDS011;71547;50.146;8.174;2024-03-29T00:05:33;6.67;;;1.40;;
1777;SDS011;71547;50.146;8.174;2024-03-29T00:07:59;3.97;;;1.77;;
1777;SDS011;71547;50.146;8.174;2024-03-29T00:10:25;2.65;;;1.40;;
1777;SDS011;71547;50.146;8.174;2024-03-29T00:12:51;4.82;;;1.45;;
1777;SDS011;71547;50.146;8.174;2024-03-29T00:15:19;2.30;;;1.67;;
1777;SDS011;71547;50.146;8.174;2024-03-29T00:17:45;1.90;;;1.23;;
1777;SDS011;71547;50.146;8.174;2024-03-29T00:20:13;2.80;;;1.40;;
1777;SDS011;71547;50.146;8.174;2024-03-29T00:22:40;3.05;;;1.35;;
1777;SDS011;71547;50.146;8.174;2024-03-29T00:25:07;1.67;;;1.45;;
1777;SDS011;71547;50.146;8.174;2024-03-29T00:27:34;2.10;;;1.60;;
1777;SDS011;71547;50.146;8.174;2024-03-29T00:30:01;3.63;;;1.60;;
1777;SDS011;71547;50.146;8.174;2024-03-29T00:32:32;2.67;;;1.25;;
1777;SDS011;71547;50.146;8.174;2024-03-29T00:34:58;3.43;;;1.70;;
1777;SDS011;71547;50.146;8.174;2024-03-29T00:37:24;1.73;;;1.63;;
1777;SDS011;71547;50.146;8.174;2024-03-29T00:39:51;3.53;;;1.67;;
1777;SDS011;71547;50.146;8.174;2024-03-29T00:42:17;2.10;;;1.53;;
1777;SDS011;71547;50.146;8.174;2024-03-29T00:44:44;2.90;;;1.37;;
1777;SDS011;71547;50.146;8.174;2024-03-29T00:47:11;2.83;;;1.83;;
1777;SDS011;71547;50.146;8.174;2024-03-29T00:49:38;3.30;;;1.70;;
1777;SDS011;71547;50.146;8.174;2024-03-29T00:52:04;1.57;;;1.23;;
1777;SDS011;71547;50.146;8.174;2024-03-29T00:54:49;1.93;;;1.63;;
1777;SDS011;71547;50.146;8.174;2024-03-29T00:57:15;4.88;;;1.88;;
1777;SDS011;71547;50.146;8.174;2024-03-29T00:59:42;4.30;;;1.60;;
1777;SDS011;71547;50.146;8.174;2024-03-29T01:02:08;2.70;;;1.60;;
1777;SDS011;71547;50.146;8.174;2024-03-29T01:04:36;4.95;;;2.90;;
1777;SDS011;71547;50.146;8.174;2024-03-29T01:07:07;4.07;;;1.90;;
1777;SDS011;71547;50.146;8.174;2024-03-29T01:09:33;8.83;;;1.67;;
1777;SDS011;71547;50.146;8.174;2024-03-29T01:11:59;11.10;;;1.70;;
1777;SDS011;71547;50.146;8.174;2024-03-29T01:14:25;8.13;;;1.63;;
1777;SDS011;71547;50.146;8.174;2024-03-29T01:16:51;1.77;;;1.50;;
1777;SDS011;71547;50.146;8.174;2024-03-29T01:19:18;3.83;;;1.47;;
1777;SDS011;71547;50.146;8.174;2024-03-29T01:21:45;1.40;;;1.30;;
1777;SDS011;71547;50.146;8.174;2024-03-29T01:24:12;2.70;;;1.57;;
1777;SDS011;71547;50.146;8.174;2024-03-29T01:26:38;3.77;;;1.60;;
1777;SDS011;71547;50.146;8.174;2024-03-29T01:29:04;3.23;;;1.33;;
1777;SDS011;71547;50.146;8.174;2024-03-29T01:31:31;2.00;;;1.40;;
1777;SDS011;71547;50.146;8.174;2024-03-29T01:33:57;2.80;;;1.70;;
1777;SDS011;71547;50.146;8.174;2024-03-29T01:36:23;3.53;;;1.33;;
1777;SDS011;71547;50.146;8.174;2024-03-29T01:38:51;2.53;;;1.57;;
1777;SDS011;71547;50.146;8.174;2024-03-29T01:41:20;4.40;;;1.80;;
1777;SDS011;71547;50.146;8.174;2024-03-29T01:43:46;2.43;;;2.10;;
1777;SDS011;71547;50.146;8.174;2024-03-29T01:46:12;3.53;;;1.67;;
1777;SDS011;71547;50.146;8.174;2024-03-29T01:48:42;1.60;;;1.50;;
1777;SDS011;71547;50.146;8.174;2024-03-29T01:51:09;3.50;;;2.30;;
1777;SDS011;71547;50.146;8.174;2024-03-29T01:53:38;3.77;;;1.63;;
1777;SDS011;71547;50.146;8.174;2024-03-29T01:56:08;4.35;;;2.03;;
1777;SDS011;71547;50.146;8.174;2024-03-29T01:58:35;3.25;;;1.55;;
1777;SDS011;71547;50.146;8.174;2024-03-29T02:01:02;1.60;;;1.40;;
1777;SDS011;71547;50.146;8.174;2024-03-29T02:03:29;2.20;;;1.83;;
1777;SDS011;71547;50.146;8.174;2024-03-29T02:05:55;3.63;;;1.70;;
1777;SDS011;71547;50.146;8.174;2024-03-29T02:08:23;5.53;;;2.10;;
1777;SDS011;71547;50.146;8.174;2024-03-29T02:10:49;1.93;;;1.60;;
1777;SDS011;71547;50.146;8.174;2024-03-29T02:13:18;3.43;;;1.57;;
1777;SDS011;71547;50.146;8.174;2024-03-29T02:16:02;4.23;;;1.87;;
1777;SDS011;71547;50.146;8.174;2024-03-29T02:18:29;2.70;;;1.43;;
1777;SDS011;71547;50.146;8.174;2024-03-29T02:20:55;3.97;;;1.47;;
1777;SDS011;71547;50.146;8.174;2024-03-29T02:23:24;2.17;;;1.40;;
1777;SDS011;71547;50.146;8.174;2024-03-29T02:25:57;3.37;;;1.53;;
1777;SDS011;71547;50.146;8.174;2024-03-29T02:28:23;2.50;;;1.85;;
1777;SDS011;71547;50.146;8.174;2024-03-29T02:30:50;2.40;;;1.43;;
1777;SDS011;71547;50.146;8.174;2024-03-29T02:33:17;3.50;;;1.70;;
1777;SDS011;71547;50.146;8.174;2024-03-29T02:35:43;3.83;;;1.87;;
1777;SDS011;71547;50.146;8.174;2024-03-29T02:38:09;1.43;;;1.33;;
1777;SDS011;71547;50.146;8.174;2024-03-29T02:40:35;2.17;;;1.60;;
1777;SDS011;71547;50.146;8.174;2024-03-29T02:43:03;3.40;;;1.80;;
1777;SDS011;71547;50.146;8.174;2024-03-29T02:45:29;2.03;;;1.63;;
1777;SDS011;71547;50.146;8.174;2024-03-29T02:47:55;2.23;;;1.40;;
1777;SDS011;71547;50.146;8.174;2024-03-29T02:50:21;4.50;;;1.53;;
1777;SDS011;71547;50.146;8.174;2024-03-29T02:52:47;5.00;;;1.60;;
1777;SDS011;71547;50.146;8.174;2024-03-29T02:55:14;2.40;;;1.30;;
1777;SDS011;71547;50.146;8.174;2024-03-29T02:57:40;4.13;;;1.63;;
1777;SDS011;71547;50.146;8.174;2024-03-29T03:00:08;2.20;;;1.90;;
1777;SDS011;71547;50.146;8.174;2024-03-29T03:02:37;4.10;;;1.83;;
1777;SDS011;71547;50.146;8.174;2024-03-29T03:05:04;1.67;;;1.43;;
1777;SDS011;71547;50.146;8.174;2024-03-29T03:07:35;1.90;;;1.50;;
1777;SDS011;71547;50.146;8.174;2024-03-29T03:10:19;3.57;;;1.43;;
1777;SDS011;71547;50.146;8.174;2024-03-29T03:13:04;2.63;;;1.60;;
1777;SDS011;71547;50.146;8.174;2024-03-29T03:15:32;7.97;;;1.90;;
1777;SDS011;71547;50.146;8.174;2024-03-29T03:17:58;4.17;;;1.90;;
1777;SDS011;71547;50.146;8.174;2024-03-29T03:20:24;2.80;;;1.40;;
1777;SDS011;71547;50.146;8.174;2024-03-29T03:22:55;1.57;;;1.47;;
1777;SDS011;71547;50.146;8.174;2024-03-29T03:25:22;1.87;;;1.50;;
1777;SDS011;71547;50.146;8.174;2024-03-29T03:27:50;4.00;;;1.40;;
1777;SDS011;71547;50.146;8.174;2024-03-29T03:30:16;2.73;;;1.50;;
1777;SDS011;71547;50.146;8.174;2024-03-29T03:32:46;4.40;;;1.30;;
1777;SDS011;71547;50.146;8.174;2024-03-29T03:35:14;3.60;;;2.20;;
1777;SDS011;71547;50.146;8.174;2024-03-29T03:37:40;1.50;;;1.40;;
1777;SDS011;71547;50.146;8.174;2024-03-29T03:40:07;5.43;;;1.50;;
1777;SDS011;71547;50.146;8.174;2024-03-29T03:42:34;2.63;;;1.53;;
1777;SDS011;71547;50.146;8.174;2024-03-29T03:45:00;2.20;;;1.70;;
1777;SDS011;71547;50.146;8.174;2024-03-29T03:47:26;3.70;;;2.10;;
1777;SDS011;71547;50.146;8.174;2024-03-29T03:49:54;1.50;;;1.40;;
1777;SDS011;71547;50.146;8.174;2024-03-29T03:52:20;2.83;;;1.50;;
1777;SDS011;71547;50.146;8.174;2024-03-29T03:54:49;2.97;;;1.70;;
1777;SDS011;71547;50.146;8.174;2024-03-29T03:57:15;2.70;;;1.63;;
1777;SDS011;71547;50.146;8.174;2024-03-29T03:59:41;1.98;;;1.50;;
1777;SDS011;71547;50.146;8.174;2024-03-29T04:02:07;1.90;;;1.67;;
1777;SDS011;71547;50.146;8.174;2024-03-29T04:04:33;1.95;;;1.48;;
1777;SDS011;71547;50.146;8.174;2024-03-29T04:07:01;2.38;;;1.75;;
1777;SDS011;71547;50.146;8.174;2024-03-29T04:09:27;1.33;;;1.23;;
1777;SDS011;71547;50.146;8.174;2024-03-29T04:11:54;2.60;;;2.00;;
1777;SDS011;71547;50.146;8.174;2024-03-29T04:14:20;2.95;;;1.52;;
1777;SDS011;71547;50.146;8.174;2024-03-29T04:16:46;1.27;;;1.17;;
1777;SDS011;71547;50.146;8.174;2024-03-29T04:19:12;1.97;;;1.43;;
1777;SDS011;71547;50.146;8.174;2024-03-29T04:21:38;2.10;;;1.40;;
1777;SDS011;71547;50.146;8.174;2024-03-29T04:24:06;8.80;;;1.70;;
1777;SDS011;71547;50.146;8.174;2024-03-29T04:26:35;3.43;;;1.70;;
1777;SDS011;71547;50.146;8.174;2024-03-29T04:29:02;1.93;;;1.60;;
1777;SDS011;71547;50.146;8.174;2024-03-29T04:31:28;2.13;;;1.93;;
1777;SDS011;71547;50.146;8.174;2024-03-29T04:33:54;1.60;;;1.23;;
1777;SDS011;71547;50.146;8.174;2024-03-29T04:36:21;2.35;;;1.30;;
1777;SDS011;71547;50.146;8.174;2024-03-29T04:38:47;6.55;;;1.80;;
1777;SDS011;71547;50.146;8.174;2024-03-29T04:41:15;4.10;;;1.43;;
1777;SDS011;71547;50.146;8.174;2024-03-29T04:43:41;1.45;;;1.35;;
1777;SDS011;71547;50.146;8.174;2024-03-29T04:46:10;1.70;;;1.38;;
1777;SDS011;71547;50.146;8.174;2024-03-29T04:48:38;1.60;;;1.25;;
1777;SDS011;71547;50.146;8.174;2024-03-29T04:51:11;1.67;;;1.58;;
1777;SDS011;71547;50.146;8.174;2024-03-29T04:53:38;1.83;;;1.30;;
1777;SDS011;71547;50.146;8.174;2024-03-29T04:56:05;2.30;;;1.40;;
1777;SDS011;71547;50.146;8.174;2024-03-29T04:58:33;1.33;;;1.23;;
1777;SDS011;71547;50.146;8.174;2024-03-29T05:00:59;2.40;;;1.70;;
1777;SDS011;71547;50.146;8.174;2024-03-29T05:03:25;4.50;;;1.60;;
1777;SDS011;71547;50.146;8.174;2024-03-29T05:05:52;3.60;;;1.83;;
1777;SDS011;71547;50.146;8.174;2024-03-29T05:08:18;2.40;;;1.40;;
1777;SDS011;71547;50.146;8.174;2024-03-29T05:10:46;3.13;;;1.50;;
1777;SDS011;71547;50.146;8.174;2024-03-29T05:13:13;2.30;;;1.90;;
1777;SDS011;71547;50.146;8.174;2024-03-29T05:15:41;1.83;;;1.40;;
1777;SDS011;71547;50.146;8.174;2024-03-29T05:18:08;2.13;;;1.70;;
1777;SDS011;71547;50.146;8.174;2024-03-29T05:20:34;3.15;;;1.40;;
1777;SDS011;71547;50.146;8.174;2024-03-29T05:23:00;1.80;;;1.70;;
1777;SDS011;71547;50.146;8.174;2024-03-29T05:25:27;4.20;;;1.57;;
1777;SDS011;71547;50.146;8.174;2024-03-29T05:27:53;1.70;;;1.57;;
1777;SDS011;71547;50.146;8.174;2024-03-29T05:30:21;1.73;;;1.63;;
1777;SDS011;71547;50.146;8.174;2024-03-29T05:32:51;2.60;;;1.50;;
1777;SDS011;71547;50.146;8.174;2024-03-29T05:35:18;2.17;;;1.98;;
1777;SDS011;71547;50.146;8.174;2024-03-29T05:37:44;3.00;;;1.80;;
1777;SDS011;71547;50.146;8.174;2024-03-29T05:40:14;1.50;;;1.40;;
1777;SDS011;71547;50.146;8.174;2024-03-29T05:42:41;1.53;;;1.43;;
1777;SDS011;71547;50.146;8.174;2024-03-29T05:45:20;2.73;;;2.13;;
1777;SDS011;71547;50.146;8.174;2024-03-29T05:47:49;1.80;;;1.70;;
1777;SDS011;71547;50.146;8.174;2024-03-29T05:50:17;2.90;;;1.50;;
1777;SDS011;71547;50.146;8.174;2024-03-29T05:52:44;2.60;;;2.10;;
1777;SDS011;71547;50.146;8.174;2024-03-29T05:55:10;3.27;;;1.80;;
1777;SDS011;71547;50.146;8.174;2024-03-29T05:57:36;2.37;;;1.70;;
1777;SDS011;71547;50.146;8.174;2024-03-29T06:00:10;3.10;;;1.77;;
1777;SDS011;71547;50.146;8.174;2024-03-29T06:02:41;3.00;;;1.60;;
1777;SDS011;71547;50.146;8.174;2024-03-29T06:05:10;2.10;;;1.90;;
1777;SDS011;71547;50.146;8.174;2024-03-29T06:07:39;2.10;;;1.67;;
1777;SDS011;71547;50.146;8.174;2024-03-29T06:10:08;1.93;;;1.80;;
1777;SDS011;71547;50.146;8.174;2024-03-29T06:12:35;1.67;;;1.58;;
1777;SDS011;71547;50.146;8.174;2024-03-29T06:15:04;1.80;;;1.52;;
1777;SDS011;71547;50.146;8.174;2024-03-29T06:17:50;2.72;;;1.55;;
1777;SDS011;71547;50.146;8.174;2024-03-29T06:20:18;4.90;;;1.53;;
1777;SDS011;71547;50.146;8.174;2024-03-29T06:22:44;2.75;;;1.60;;
1777;SDS011;71547;50.146;8.174;2024-03-29T06:25:10;2.35;;;1.92;;
1777;SDS011;71547;50.146;8.174;2024-03-29T06:27:37;3.47;;;2.20;;
1777;SDS011;71547;50.146;8.174;2024-03-29T06:30:15;3.33;;;1.80;;
1777;SDS011;71547;50.146;8.174;2024-03-29T06:32:42;4.65;;;1.90;;
1777;SDS011;71547;50.146;8.174;2024-03-29T06:35:08;2.17;;;1.97;;
1777;SDS011;71547;50.146;8.174;2024-03-29T06:37:36;2.15;;;1.95;;
1777;SDS011;71547;50.146;8.174;2024-03-29T06:40:02;2.37;;;1.87;;
1777;SDS011;71547;50.146;8.174;2024-03-29T06:42:33;1.90;;;1.70;;
1777;SDS011;71547;50.146;8.174;2024-03-29T06:44:59;2.55;;;1.63;;
1777;SDS011;71547;50.146;8.174;2024-03-29T06:47:27;1.70;;;1.60;;
1777;SDS011;71547;50.146;8.174;2024-03-29T06:49:56;5.80;;;1.90;;
1777;SDS011;71547;50.146;8.174;2024-03-29T06:52:23;1.83;;;1.73;;
1777;SDS011;71547;50.146;8.174;2024-03-29T06:54:51;2.40;;;2.30;;
1777;SDS011;71547;50.146;8.174;2024-03-29T06:57:17;7.18;;;2.03;;
1777;SDS011;71547;50.146;8.174;2024-03-29T06:59:48;2.03;;;1.80;;
1777;SDS011;71547;50.146;8.174;2024-03-29T07:02:15;3.97;;;1.90;;
1777;SDS011;71547;50.146;8.174;2024-03-29T07:04:41;4.90;;;2.03;;
1777;SDS011;71547;50.146;8.174;2024-03-29T07:07:10;2.07;;;1.80;;
1777;SDS011;71547;50.146;8.174;2024-03-29T07:09:39;3.73;;;1.70;;
1777;SDS011;71547;50.146;8.174;2024-03-29T07:12:08;4.70;;;2.20;;
1777;SDS011;71547;50.146;8.174;2024-03-29T07:14:37;2.40;;;1.70;;
1777;SDS011;71547;50.146;8.174;2024-03-29T07:17:03;2.50;;;2.30;;
1777;SDS011;71547;50.146;8.174;2024-03-29T07:19:30;2.60;;;1.60;;
1777;SDS011;71547;50.146;8.174;2024-03-29T07:21:56;6.67;;;1.93;;
1777;SDS011;71547;50.146;8.174;2024-03-29T07:24:22;2.33;;;2.00;;
1777;SDS011;71547;50.146;8.174;2024-03-29T07:26:52;3.80;;;2.23;;
1777;SDS011;71547;50.146;8.174;2024-03-29T07:29:20;2.00;;;1.80;;
1777;SDS011;71547;50.146;8.174;2024-03-29T07:31:46;3.20;;;1.80;;
1777;SDS011;71547;50.146;8.174;2024-03-29T07:34:12;2.13;;;1.83;;
1777;SDS011;71547;50.146;8.174;2024-03-29T07:36:40;2.30;;;2.10;;
1777;SDS011;71547;50.146;8.174;2024-03-29T07:39:07;4.30;;;2.00;;
1777;SDS011;71547;50.146;8.174;2024-03-29T07:41:33;1.97;;;1.87;;
1777;SDS011;71547;50.146;8.174;2024-03-29T07:43:59;4.27;;;2.50;;
1777;SDS011;71547;50.146;8.174;2024-03-29T07:46:31;2.50;;;2.30;;
1777;SDS011;71547;50.146;8.174;2024-03-29T07:48:59;3.33;;;2.10;;
1777;SDS011;71547;50.146;8.174;2024-03-29T07:51:25;6.67;;;2.63;;
1777;SDS011;71547;50.146;8.174;2024-03-29T07:53:51;4.20;;;1.90;;
1777;SDS011;71547;50.146;8.174;2024-03-29T07:56:17;2.23;;;1.87;;
1777;SDS011;71547;50.146;8.174;2024-03-29T07:58:44;2.53;;;2.20;;
1777;SDS011;71547;50.146;8.174;2024-03-29T08:01:10;1.90;;;1.80;;
1777;SDS011;71547;50.146;8.174;2024-03-29T08:03:44;2.67;;;2.03;;
1777;SDS011;71547;50.146;8.174;2024-03-29T08:06:11;2.10;;;1.90;;
1777;SDS011;71547;50.146;8.174;2024-03-29T08:08:37;1.97;;;1.77;;
1777;SDS011;71547;50.146;8.174;2024-03-29T08:11:03;1.80;;;1.70;;
1777;SDS011;71547;50.146;8.174;2024-03-29T08:13:30;1.43;;;1.33;;
1777;SDS011;71547;50.146;8.174;2024-03-29T08:15:56;2.10;;;1.47;;
1777;SDS011;71547;50.146;8.174;2024-03-29T08:18:26;3.13;;;1.37;;
1777;SDS011;71547;50.146;8.174;2024-03-29T08:20:55;2.70;;;1.50;;
1777;SDS011;71547;50.146;8.174;2024-03-29T08:23:21;1.37;;;1.27;;
1777;SDS011;71547;50.146;8.174;2024-03-29T08:25:47;1.40;;;1.30;;
1777;SDS011;71547;50.146;8.174;2024-03-29T08:28:14;2.80;;;1.20;;
1777;SDS011;71547;50.146;8.174;2024-03-29T08:30:42;2.33;;;1.23;;
1777;SDS011;71547;50.146;8.174;2024-03-29T08:33:08;2.00;;;1.40;;
1777;SDS011;71547;50.146;8.174;2024-03-29T08:35:36;1.40;;;1.30;;
1777;SDS011;71547;50.146;8.174;2024-03-29T08:38:04;2.03;;;1.40;;
1777;SDS011;71547;50.146;8.174;2024-03-29T08:40:35;4.93;;;1.53;;
1777;SDS011;71547;50.146;8.174;2024-03-29T08:43:03;1.53;;;1.43;;
1777;SDS011;71547;50.146;8.174;2024-03-29T08:45:30;1.37;;;1.27;;
1777;SDS011;71547;50.146;8.174;2024-03-29T08:47:56;3.53;;;1.80;;
1777;SDS011;71547;50.146;8.174;2024-03-29T08:50:22;1.70;;;1.30;;
1777;SDS011;71547;50.146;8.174;2024-03-29T08:52:49;1.33;;;1.23;;
1777;SDS011;71547;50.146;8.174;2024-03-29T08:55:16;1.13;;;1.03;;
1777;SDS011;71547;50.146;8.174;2024-03-29T08:57:42;1.70;;;1.57;;
1777;SDS011;71547;50.146;8.174;2024-03-29T09:00:09;1.43;;;1.10;;
1777;SDS011;71547;50.146;8.174;2024-03-29T09:02:36;1.47;;;1.20;;
1777;SDS011;71547;50.146;8.174;2024-03-29T09:05:03;1.20;;;1.10;;
1777;SDS011;71547;50.146;8.174;2024-03-29T09:07:30;1.70;;;1.33;;
1777;SDS011;71547;50.146;8.174;2024-03-29T09:09:56;1.93;;;1.30;;
1777;SDS011;71547;50.146;8.174;2024-03-29T09:12:25;1.77;;;1.60;;
1777;SDS011;71547;50.146;8.174;2024-03-29T09:14:51;5.17;;;1.43;;
1777;SDS011;71547;50.146;8.174;2024-03-29T09:17:18;1.00;;;0.90;;
1777;SDS011;71547;50.146;8.174;2024-03-29T09:19:48;1.73;;;1.27;;
1777;SDS011;71547;50.146;8.174;2024-03-29T09:22:16;2.00;;;1.60;;
1777;SDS011;71547;50.146;8.174;2024-03-29T09:24:42;2.43;;;1.30;;
1777;SDS011;71547;50.146;8.174;2024-03-29T09:27:09;1.90;;;1.50;;
1777;SDS011;71547;50.146;8.174;2024-03-29T09:29:36;1.47;;;1.37;;
1777;SDS011;71547;50.146;8.174;2024-03-29T09:32:02;1.83;;;1.73;;
1777;SDS011;71547;50.146;8.174;2024-03-29T09:34:29;1.77;;;1.67;;
1777;SDS011;71547;50.146;8.174;2024-03-29T09:36:58;1.50;;;1.23;;
1777;SDS011;71547;50.146;8.174;2024-03-29T09:39:24;2.33;;;1.63;;
1777;SDS011;71547;50.146;8.174;2024-03-29T09:41:50;2.10;;;1.70;;
1777;SDS011;71547;50.146;8.174;2024-03-29T09:44:22;2.23;;;1.83;;
1777;SDS011;71547;50.146;8.174;2024-03-29T09:46:50;3.30;;;1.33;;
1777;SDS011;71547;50.146;8.174;2024-03-29T09:49:21;1.70;;;1.60;;
1777;SDS011;71547;50.146;8.174;2024-03-29T09:51:48;2.47;;;1.70;;
1777;SDS011;71547;50.146;8.174;2024-03-29T09:54:15;4.27;;;2.00;;
1777;SDS011;71547;50.146;8.174;2024-03-29T09:56:41;1.67;;;1.57;;
1777;SDS011;71547;50.146;8.174;2024-03-29T09:59:08;4.17;;;1.70;;
1777;SDS011;71547;50.146;8.174;2024-03-29T10:01:34;1.60;;;1.50;;
1777;SDS011;71547;50.146;8.174;2024-03-29T10:04:05;2.13;;;2.03;;
1777;SDS011;71547;50.146;8.174;2024-03-29T10:06:34;2.20;;;1.80;;
1777;SDS011;71547;50.146;8.174;2024-03-29T10:09:03;2.20;;;1.87;;
1777;SDS011;71547;50.146;8.174;2024-03-29T10:11:29;2.10;;;1.90;;
1777;SDS011;71547;50.146;8.174;2024-03-29T10:13:59;2.20;;;2.10;;
1777;SDS011;71547;50.146;8.174;2024-03-29T10:16:25;3.27;;;2.20;;
1777;SDS011;71547;50.146;8.174;2024-03-29T10:18:52;2.20;;;2.00;;
1777;SDS011;71547;50.146;8.174;2024-03-29T10:21:24;6.23;;;1.87;;
1777;SDS011;71547;50.146;8.174;2024-03-29T10:23:51;3.90;;;2.20;;
1777;SDS011;71547;50.146;8.174;2024-03-29T10:26:18;3.37;;;2.33;;
1777;SDS011;71547;50.146;8.174;2024-03-29T10:28:46;2.33;;;2.13;;
1777;SDS011;71547;50.146;8.174;2024-03-29T10:31:14;3.30;;;2.20;;
1777;SDS011;71547;50.146;8.174;2024-03-29T10:33:41;2.37;;;1.90;;
1777;SDS011;71547;50.146;8.174;2024-03-29T10:36:14;3.53;;;2.63;;
1777;SDS011;71547;50.146;8.174;2024-03-29T10:38:44;2.47;;;2.27;;
1777;SDS011;71547;50.146;8.174;2024-03-29T10:41:13;2.33;;;2.13;;
1777;SDS011;71547;50.146;8.174;2024-03-29T10:43:40;2.23;;;1.83;;
1777;SDS011;71547;50.146;8.174;2024-03-29T10:46:09;2.43;;;2.20;;
1777;SDS011;71547;50.146;8.174;2024-03-29T10:48:37;3.53;;;2.50;;
1777;SDS011;71547;50.146;8.174;2024-03-29T10:51:04;2.50;;;2.20;;
1777;SDS011;71547;50.146;8.174;2024-03-29T10:53:30;2.10;;;2.00;;
1777;SDS011;71547;50.146;8.174;2024-03-29T10:55:59;2.57;;;2.37;;
1777;SDS011;71547;50.146;8.174;2024-03-29T10:58:29;4.50;;;2.67;;
1777;SDS011;71547;50.146;8.174;2024-03-29T11:00:58;3.40;;;2.57;;
1777;SDS011;71547;50.146;8.174;2024-03-29T11:03:29;3.30;;;3.07;;
1777;SDS011;71547;50.146;8.174;2024-03-29T11:06:04;4.80;;;3.90;;
1777;SDS011;71547;50.146;8.174;2024-03-29T11:08:32;3.10;;;2.90;;
1777;SDS011;71547;50.146;8.174;2024-03-29T11:11:10;3.90;;;3.50;;
1777;SDS011;71547;50.146;8.174;2024-03-29T11:13:38;4.03;;;3.70;;
1777;SDS011;71547;50.146;8.174;2024-03-29T11:16:14;3.97;;;3.67;;
1777;SDS011;71547;50.146;8.174;2024-03-29T11:18:42;3.60;;;3.30;;
1777;SDS011;71547;50.146;8.174;2024-03-29T11:21:09;3.90;;;3.60;;
1777;SDS011;71547;50.146;8.174;2024-03-29T11:23:37;3.70;;;3.50;;
1777;SDS011;71547;50.146;8.174;2024-03-29T11:26:04;4.47;;;3.93;;
1777;SDS011;71547;50.146;8.174;2024-03-29T11:28:33;3.73;;;3.40;;
1777;SDS011;71547;50.146;8.174;2024-03-29T11:31:01;7.33;;;3.67;;
1777;SDS011;71547;50.146;8.174;2024-03-29T11:33:32;3.30;;;2.93;;
1777;SDS011;71547;50.146;8.174;2024-03-29T11:36:09;6.60;;;3.73;;
1777;SDS011;71547;50.146;8.174;2024-03-29T11:38:38;4.17;;;3.87;;
1777;SDS011;71547;50.146;8.174;2024-03-29T11:41:05;4.20;;;3.83;;
1777;SDS011;71547;50.146;8.174;2024-03-29T11:43:34;3.90;;;3.70;;
1777;SDS011;71547;50.146;8.174;2024-03-29T11:46:04;3.90;;;3.70;;
1777;SDS011;71547;50.146;8.174;2024-03-29T11:48:33;3.90;;;3.60;;
1777;SDS011;71547;50.146;8.174;2024-03-29T11:51:01;5.10;;;3.30;;
1777;SDS011;71547;50.146;8.174;2024-03-29T11:53:29;3.10;;;2.90;;
1777;SDS011;71547;50.146;8.174;2024-03-29T11:55:56;3.47;;;3.27;;
1777;SDS011;71547;50.146;8.174;2024-03-29T11:58:24;4.00;;;3.60;;
1777;SDS011;71547;50.146;8.174;2024-03-29T12:04:04;4.73;;;3.57;;
1777;SDS011;71547;50.146;8.174;2024-03-29T12:06:31;3.73;;;3.27;;
1777;SDS011;71547;50.146;8.174;2024-03-29T12:08:57;6.60;;;6.00;;
1777;SDS011;71547;50.146;8.174;2024-03-29T12:11:24;4.60;;;4.30;;
1777;SDS011;71547;50.146;8.174;2024-03-29T12:13:54;7.23;;;4.27;;
1777;SDS011;71547;50.146;8.174;2024-03-29T12:16:24;3.73;;;3.47;;
1777;SDS011;71547;50.146;8.174;2024-03-29T12:18:52;4.13;;;3.80;;
1777;SDS011;71547;50.146;8.174;2024-03-29T12:21:18;4.53;;;4.13;;
1777;SDS011;71547;50.146;8.174;2024-03-29T12:23:47;3.93;;;3.63;;
1777;SDS011;71547;50.146;8.174;2024-03-29T12:26:15;4.10;;;3.80;;
1777;SDS011;71547;50.146;8.174;2024-03-29T12:28:48;3.70;;;3.40;;
1777;SDS011;71547;50.146;8.174;2024-03-29T12:31:15;3.60;;;3.30;;
1777;SDS011;71547;50.146;8.174;2024-03-29T12:33:41;4.27;;;3.50;;
1777;SDS011;71547;50.146;8.174;2024-03-29T12:36:18;3.67;;;3.47;;
1777;SDS011;71547;50.146;8.174;2024-03-29T12:38:49;3.67;;;3.37;;
1777;SDS011;71547;50.146;8.174;2024-03-29T12:41:18;3.40;;;3.10;;
1777;SDS011;71547;50.146;8.174;2024-03-29T12:43:44;3.60;;;3.40;;
1777;SDS011;71547;50.146;8.174;2024-03-29T12:46:11;3.20;;;3.00;;
1777;SDS011;71547;50.146;8.174;2024-03-29T12:48:37;3.50;;;3.20;;
1777;SDS011;71547;50.146;8.174;2024-03-29T12:51:05;3.73;;;3.50;;
1777;SDS011;71547;50.146;8.174;2024-03-29T12:53:32;3.43;;;3.23;;
1777;SDS011;71547;50.146;8.174;2024-03-29T12:55:58;3.63;;;3.17;;
1777;SDS011;71547;50.146;8.174;2024-03-29T12:58:25;3.43;;;3.23;;
1777;SDS011;71547;50.146;8.174;2024-03-29T13:00:53;3.00;;;2.80;;
1777;SDS011;71547;50.146;8.174;2024-03-29T13:03:19;3.30;;;3.10;;
1777;SDS011;71547;50.146;8.174;2024-03-29T13:05:46;3.23;;;3.03;;
1777;SDS011;71547;50.146;8.174;2024-03-29T13:08:15;3.03;;;2.93;;
1777;SDS011;71547;50.146;8.174;2024-03-29T13:10:43;3.17;;;2.97;;
1777;SDS011;71547;50.146;8.174;2024-03-29T13:13:09;3.20;;;3.00;;
1777;SDS011;71547;50.146;8.174;2024-03-29T13:15:37;3.20;;;2.90;;
1777;SDS011;71547;50.146;8.174;2024-03-29T13:18:06;3.23;;;3.03;;
1777;SDS011;71547;50.146;8.174;2024-03-29T13:20:35;3.30;;;3.00;;
1777;SDS011;71547;50.146;8.174;2024-03-29T13:23:08;3.17;;;2.90;;
1777;SDS011;71547;50.146;8.174;2024-03-29T13:25:36;2.67;;;2.47;;
1777;SDS011;71547;50.146;8.174;2024-03-29T13:28:02;3.00;;;2.80;;
1777;SDS011;71547;50.146;8.174;2024-03-29T13:30:29;2.50;;;2.40;;
1777;SDS011;71547;50.146;8.174;2024-03-29T13:32:55;3.27;;;2.90;;
1777;SDS011;71547;50.146;8.174;2024-03-29T13:35:21;4.30;;;3.07;;
1777;SDS011;71547;50.146;8.174;2024-03-29T13:37:48;3.40;;;3.00;;
1777;SDS011;71547;50.146;8.174;2024-03-29T13:40:17;3.23;;;3.03;;
1777;SDS011;71547;50.146;8.174;2024-03-29T13:42:47;2.80;;;2.63;;
1777;SDS011;71547;50.146;8.174;2024-03-29T13:45:14;3.07;;;2.87;;
1777;SDS011;71547;50.146;8.174;2024-03-29T13:47:41;3.00;;;2.80;;
1777;SDS011;71547;50.146;8.174;2024-03-29T13:50:13;3.30;;;3.00;;
1777;SDS011;71547;50.146;8.174;2024-03-29T13:52:40;2.40;;;2.30;;
1777;SDS011;71547;50.146;8.174;2024-03-29T13:55:08;3.57;;;3.27;;
1777;SDS011;71547;50.146;8.174;2024-03-29T13:57:35;4.20;;;3.90;;
1777;SDS011;71547;50.146;8.174;2024-03-29T14:00:04;4.07;;;3.77;;
1777;SDS011;71547;50.146;8.174;2024-03-29T14:02:32;3.73;;;3.53;;
1777;SDS011;71547;50.146;8.174;2024-03-29T14:04:58;4.40;;;4.00;;
1777;SDS011;71547;50.146;8.174;2024-03-29T14:07:25;4.23;;;3.80;;
1777;SDS011;71547;50.146;8.174;2024-03-29T14:09:51;4.30;;;4.00;;
1777;SDS011;71547;50.146;8.174;2024-03-29T14:12:18;3.67;;;3.37;;
1777;SDS011;71547;50.146;8.174;2024-03-29T14:14:46;4.50;;;4.17;;
1777;SDS011;71547;50.146;8.174;2024-03-29T14:17:17;4.20;;;4.00;;
1777;SDS011;71547;50.146;8.174;2024-03-29T14:19:43;3.83;;;3.57;;
1777;SDS011;71547;50.146;8.174;2024-03-29T14:22:10;4.10;;;3.53;;
1777;SDS011;71547;50.146;8.174;2024-03-29T14:24:38;5.27;;;4.23;;
1777;SDS011;71547;50.146;8.174;2024-03-29T14:27:05;5.00;;;4.67;;
1777;SDS011;71547;50.146;8.174;2024-03-29T14:29:32;4.00;;;3.70;;
1777;SDS011;71547;50.146;8.174;2024-03-29T14:31:59;4.70;;;4.40;;
1777;SDS011;71547;50.146;8.174;2024-03-29T14:34:28;4.80;;;4.40;;
1777;SDS011;71547;50.146;8.174;2024-03-29T14:36:57;4.37;;;3.97;;
1777;SDS011;71547;50.146;8.174;2024-03-29T14:39:24;4.27;;;3.70;;
1777;SDS011;71547;50.146;8.174;2024-03-29T14:41:51;7.80;;;3.60;;
1777;SDS011;71547;50.146;8.174;2024-03-29T14:44:17;3.90;;;3.60;;
1777;SDS011;71547;50.146;8.174;2024-03-29T14:46:46;4.23;;;3.90;;
1777;SDS011;71547;50.146;8.174;2024-03-29T14:49:12;4.87;;;4.47;;
1777;SDS011;71547;50.146;8.174;2024-03-29T14:51:40;4.40;;;4.10;;
1777;SDS011;71547;50.146;8.174;2024-03-29T14:54:07;4.20;;;3.80;;
1777;SDS011;71547;50.146;8.174;2024-03-29T14:56:33;3.93;;;3.73;;
1777;SDS011;71547;50.146;8.174;2024-03-29T14:59:01;4.20;;;3.90;;
1777;SDS011;71547;50.146;8.174;2024-03-29T15:01:35;3.40;;;3.20;;
1777;SDS011;71547;50.146;8.174;2024-03-29T15:04:02;3.57;;;3.37;;
1777;SDS011;71547;50.146;8.174;2024-03-29T15:06:28;3.33;;;3.13;;